Aviation Digital Data Service (ADDS)

Output produced by METARs form (2053 UTC 17 November 2019)
found at http://www.aviationweather.gov/metar/data/
 
Forecast for: UKBB (BORISPOL'/KIEV , UA)
Text: TAF UKBB 171705Z 1718/1818 12003G08MPS 0400 FG VV002 TX10/1812Z TN04/1804Z
Forecast period: 1800 UTC 17 November 2019 to 0600 UTC 18 November 2019
Forecast type: FROM: standard forecast or significant change
Winds: from the ESE (120 degrees) at 7 MPH (6 knots; 3.1 m/s)
gusting to 18 MPH (16 knots; 8.2 m/s)
Visibility: 0.25 miles (0.40 km)
Ceiling: indefinite ceiling with vertical visibility of 200 feet AGL
Clouds: obscured sky
Weather: FG  (fog)
Text: TEMPO 1718/1806 2000 BR BKN005
Forecast period: 1800 UTC 17 November 2019 to 0600 UTC 18 November 2019
Forecast type: TEMPORARY: The following changes expected for less than half the time period
Visibility: 1.24 miles (2.00 km)
Ceiling: 500 feet AGL
Clouds: broken clouds at 500 feet AGL
Weather: BR  (mist)
Text: BECMG 1806/1808 15004G09MPS 5000 BR BKN007
Forecast period: 0600 to 1800 UTC 18 November 2019
Forecast type: BECOMING: Conditions expected to become as follows by 0800 UTC 18 November 2019
Winds: from the SSE (150 degrees) at 9 MPH (8 knots; 4.1 m/s)
gusting to 20 MPH (17 knots; 8.7 m/s)
Visibility: 3 miles (5 km)
Ceiling: 700 feet AGL
Clouds: broken clouds at 700 feet AGL
Weather: BR  (mist)